createdAt,value
2019-04-16T00:00:04.458Z,5.70
2019-04-16T00:01:03.469Z,5.80
2019-04-16T00:02:03.435Z,6.10
2019-04-16T00:03:03.700Z,5.60
2019-04-16T00:04:03.432Z,5.60
2019-04-16T00:05:03.404Z,5.80
2019-04-16T00:06:03.596Z,5.70
2019-04-16T00:07:03.385Z,5.70
2019-04-16T00:08:08.389Z,5.60
2019-04-16T00:09:04.361Z,6.00
2019-04-16T00:10:03.420Z,6.10
2019-04-16T00:11:03.342Z,5.90
2019-04-16T00:12:03.330Z,5.90
2019-04-16T00:13:03.328Z,6.10
2019-04-16T00:14:04.466Z,5.80
2019-04-16T00:15:03.333Z,5.80
2019-04-16T00:16:03.364Z,5.40
2019-04-16T00:17:03.281Z,5.50
2019-04-16T00:18:03.277Z,6.20
2019-04-16T00:19:05.716Z,5.90
2019-04-16T00:20:05.838Z,5.50
2019-04-16T00:21:03.273Z,6.20
2019-04-16T00:22:03.208Z,6.00
2019-04-16T00:23:03.229Z,5.80
2019-04-16T00:24:03.194Z,5.70
2019-04-16T00:25:03.202Z,5.80
2019-04-16T00:26:03.205Z,6.20
2019-04-16T00:27:03.161Z,5.70
2019-04-16T00:28:03.222Z,5.60
2019-04-16T00:29:03.315Z,5.10
2019-04-16T00:30:05.067Z,5.10
2019-04-16T00:31:04.675Z,5.40
2019-04-16T00:32:07.922Z,6.00
2019-04-16T00:33:03.184Z,5.30
2019-04-16T00:34:03.077Z,5.50
2019-04-16T00:35:03.204Z,5.50
2019-04-16T00:36:03.720Z,5.00
2019-04-16T00:37:03.063Z,5.40
2019-04-16T00:38:03.043Z,5.80
2019-04-16T00:39:03.095Z,5.40
2019-04-16T00:40:03.032Z,5.90
2019-04-16T00:41:03.003Z,5.30
2019-04-16T00:42:04.014Z,5.20
2019-04-16T00:43:02.974Z,5.30
2019-04-16T00:44:02.961Z,5.60
2019-04-16T00:45:03.225Z,5.70
2019-04-16T00:46:02.948Z,5.50
2019-04-16T00:47:02.963Z,5.30
2019-04-16T00:48:24.070Z,5.60
2019-04-16T00:49:02.930Z,5.30
2019-04-16T00:50:02.893Z,5.40
2019-04-16T00:51:02.925Z,5.20
2019-04-16T00:52:05.860Z,5.00
2019-04-16T00:53:07.808Z,5.60
2019-04-16T00:54:03.848Z,5.20
2019-04-16T00:55:02.830Z,5.70
2019-04-16T00:56:03.069Z,5.40
2019-04-16T00:57:02.843Z,5.40
2019-04-16T00:58:02.841Z,5.50
2019-04-16T00:59:02.814Z,5.70
2019-04-16T01:00:02.841Z,5.30
2019-04-16T01:01:02.830Z,5.20
2019-04-16T01:02:02.770Z,6.10
2019-04-16T01:03:02.783Z,5.20
2019-04-16T01:04:03.332Z,5.50
2019-04-16T01:05:02.799Z,5.90
2019-04-16T01:06:06.991Z,5.60
2019-04-16T01:07:03.786Z,5.60
2019-04-16T01:08:02.698Z,5.60
2019-04-16T01:09:02.690Z,6.10
2019-04-16T01:10:02.828Z,5.60
2019-04-16T01:11:02.772Z,5.50
2019-04-16T01:12:02.949Z,5.60
2019-04-16T01:13:02.864Z,5.80
2019-04-16T01:14:02.799Z,5.60
2019-04-16T01:15:02.821Z,5.80
2019-04-16T01:16:03.883Z,5.80
2019-04-16T01:17:04.829Z,5.50
2019-04-16T01:18:13.289Z,5.10
2019-04-16T01:19:15.474Z,5.60
2019-04-16T01:20:02.832Z,5.10
2019-04-16T01:21:02.670Z,5.50
2019-04-16T01:22:02.776Z,5.00
2019-04-16T01:23:02.584Z,5.00
2019-04-16T01:24:02.525Z,5.40
2019-04-16T01:25:02.532Z,5.50
2019-04-16T01:26:02.493Z,5.20
2019-04-16T01:27:02.515Z,5.60
2019-04-16T01:28:02.487Z,5.20
2019-04-16T01:29:17.547Z,5.30
2019-04-16T01:30:13.684Z,5.50
2019-04-16T01:31:07.118Z,5.60
2019-04-16T01:32:14.236Z,5.00
2019-04-16T01:33:14.630Z,5.20
2019-04-16T01:34:02.532Z,5.30
2019-04-16T01:35:02.478Z,4.80
2019-04-16T01:36:12.377Z,5.70
2019-04-16T01:37:02.516Z,5.60
2019-04-16T01:38:02.485Z,5.30
2019-04-16T01:39:16.072Z,5.10
2019-04-16T01:40:03.386Z,5.00
2019-04-16T01:41:02.339Z,5.40
2019-04-16T01:42:02.312Z,5.70
2019-04-16T01:43:02.340Z,5.00
2019-04-16T01:44:02.312Z,5.30
2019-04-16T01:45:02.290Z,4.40
2019-04-16T01:46:02.817Z,5.30
2019-04-16T01:47:04.275Z,5.10
2019-04-16T01:48:06.689Z,5.20
2019-04-16T01:49:02.328Z,5.70
2019-04-16T01:50:02.241Z,5.30
2019-04-16T01:51:02.271Z,5.10
2019-04-16T01:52:02.203Z,4.70
2019-04-16T01:53:02.204Z,5.30
2019-04-16T01:54:02.181Z,5.00
2019-04-16T01:55:02.218Z,5.30
2019-04-16T01:56:02.163Z,5.30
2019-04-16T01:57:02.196Z,5.80
2019-04-16T01:58:03.495Z,5.20
2019-04-16T01:59:04.550Z,5.40
2019-04-16T02:00:06.738Z,4.90
2019-04-16T02:01:03.156Z,5.10
2019-04-16T02:02:02.153Z,5.60
2019-04-16T02:03:02.092Z,5.10
2019-04-16T02:04:02.083Z,5.30
2019-04-16T02:05:03.164Z,4.90
2019-04-16T02:06:02.160Z,5.30
2019-04-16T02:07:02.067Z,5.20
2019-04-16T02:08:02.039Z,6.00
2019-04-16T02:09:03.235Z,5.60
2019-04-16T02:10:05.972Z,5.00
2019-04-16T02:11:03.010Z,5.80
2019-04-16T02:12:01.998Z,5.10
2019-04-16T02:13:02.014Z,5.00
2019-04-16T02:14:01.985Z,5.80
2019-04-16T02:15:01.946Z,5.70
2019-04-16T02:16:01.947Z,5.10
2019-04-16T02:17:01.926Z,5.30
2019-04-16T02:18:02.062Z,5.60
2019-04-16T02:19:02.418Z,5.20
2019-04-16T02:20:05.506Z,5.20
2019-04-16T02:21:01.884Z,5.20
2019-04-16T02:22:02.009Z,5.30
2019-04-16T02:23:01.862Z,5.10
2019-04-16T02:24:01.875Z,5.40
2019-04-16T02:25:02.015Z,4.90
2019-04-16T02:26:01.880Z,4.90
2019-04-16T02:27:01.819Z,5.30
2019-04-16T02:28:01.807Z,5.50
2019-04-16T02:29:01.831Z,5.70
2019-04-16T02:30:04.284Z,5.30
2019-04-16T02:31:01.788Z,5.60
2019-04-16T02:32:01.955Z,5.70
2019-04-16T02:33:02.506Z,6.50
2019-04-16T02:34:01.741Z,6.30
2019-04-16T02:35:01.802Z,5.30
2019-04-16T02:36:01.754Z,6.40
2019-04-16T02:37:03.215Z,5.80
2019-04-16T02:38:01.698Z,5.50
2019-04-16T02:39:02.006Z,6.00
2019-04-16T02:40:01.697Z,5.70
2019-04-16T02:41:02.250Z,5.70
2019-04-16T02:42:01.693Z,5.50
2019-04-16T02:43:06.486Z,5.30
2019-04-16T02:45:15.338Z,5.20
2019-04-16T02:46:15.207Z,5.50
2019-04-16T02:47:15.202Z,4.80
2019-04-16T02:48:17.014Z,5.60
2019-04-16T02:49:15.051Z,5.50
2019-04-16T02:50:15.018Z,5.70
2019-04-16T02:51:15.079Z,5.50
2019-04-16T02:52:16.474Z,5.40
2019-04-16T02:53:14.967Z,5.50
2019-04-16T02:54:14.952Z,5.30
2019-04-16T02:55:14.973Z,5.80
2019-04-16T02:56:19.002Z,5.20
2019-04-16T02:57:14.961Z,5.70
2019-04-16T02:58:14.909Z,6.10
2019-04-16T02:59:14.886Z,5.70
2019-04-16T03:00:17.573Z,5.60
2019-04-16T03:01:14.900Z,6.10
2019-04-16T03:02:14.886Z,5.50
2019-04-16T03:03:14.853Z,5.40
2019-04-16T03:04:14.854Z,6.00
2019-04-16T03:05:14.841Z,5.90
2019-04-16T03:06:14.822Z,5.60
2019-04-16T03:07:14.840Z,5.30
2019-04-16T03:08:14.793Z,5.60
2019-04-16T03:09:14.780Z,5.40
2019-04-16T03:10:14.804Z,5.30
2019-04-16T03:11:17.255Z,5.60
2019-04-16T03:12:17.600Z,5.60
2019-04-16T03:13:14.754Z,5.60
2019-04-16T03:14:14.724Z,5.70
2019-04-16T03:15:14.725Z,5.30
2019-04-16T03:16:14.894Z,5.70
2019-04-16T03:17:14.765Z,5.60
2019-04-16T03:18:16.065Z,5.70
2019-04-16T03:19:19.078Z,5.70
2019-04-16T03:20:15.707Z,5.60
2019-04-16T03:21:14.663Z,6.30
2019-04-16T03:22:14.666Z,5.60
2019-04-16T03:23:14.680Z,5.50
2019-04-16T03:24:14.649Z,5.90
2019-04-16T03:25:14.833Z,5.70
2019-04-16T03:26:17.786Z,5.70
2019-04-16T03:27:14.628Z,5.70
2019-04-16T03:28:15.324Z,5.50
2019-04-16T03:29:14.587Z,5.80
2019-04-16T03:30:14.601Z,6.50
2019-04-16T03:31:20.097Z,6.00
2019-04-16T03:32:15.485Z,6.00
2019-04-16T03:33:15.752Z,6.00
2019-04-16T03:34:14.545Z,5.90
2019-04-16T03:35:14.490Z,5.90
2019-04-16T03:36:14.479Z,5.90
2019-04-16T03:37:14.478Z,5.50
2019-04-16T03:38:14.463Z,5.90
2019-04-16T03:39:14.447Z,5.80
2019-04-16T03:40:18.082Z,5.90
2019-04-16T03:41:14.427Z,5.70
2019-04-16T03:42:14.424Z,5.70
2019-04-16T03:43:14.396Z,6.00
2019-04-16T03:44:14.395Z,5.90
2019-04-16T03:45:14.448Z,6.20
2019-04-16T03:46:14.586Z,5.70
2019-04-16T03:47:15.760Z,6.40
2019-04-16T03:48:14.340Z,5.80
2019-04-16T03:49:14.515Z,5.20
2019-04-16T03:50:14.339Z,5.30
2019-04-16T03:51:14.347Z,6.20
2019-04-16T03:52:14.297Z,5.80
2019-04-16T03:53:17.550Z,5.90
2019-04-16T03:54:14.271Z,6.00
2019-04-16T03:55:14.276Z,6.10
2019-04-16T03:56:14.253Z,6.10
2019-04-16T03:57:14.263Z,6.30
2019-04-16T03:58:14.241Z,6.10
2019-04-16T03:59:14.221Z,6.10
2019-04-16T04:00:14.325Z,6.80
2019-04-16T04:01:15.413Z,6.20
2019-04-16T04:02:15.577Z,6.10
2019-04-16T04:03:14.167Z,6.30
2019-04-16T04:04:14.189Z,6.80
2019-04-16T04:05:14.151Z,6.40
2019-04-16T04:06:14.154Z,7.00
2019-04-16T04:07:14.164Z,7.10
2019-04-16T04:08:17.627Z,7.10
2019-04-16T04:09:14.123Z,6.20
2019-04-16T04:10:14.098Z,7.00
2019-04-16T04:11:14.091Z,7.10
2019-04-16T04:12:14.297Z,6.40
2019-04-16T04:13:17.481Z,6.80
2019-04-16T04:14:14.043Z,5.70
2019-04-16T04:15:14.036Z,5.80
2019-04-16T04:16:14.221Z,6.30
2019-04-16T04:17:14.134Z,6.40
2019-04-16T04:18:14.169Z,6.30
2019-04-16T04:19:15.826Z,6.30
2019-04-16T04:20:14.650Z,6.40
2019-04-16T04:21:13.968Z,5.90
2019-04-16T04:22:13.973Z,6.70
2019-04-16T04:23:13.951Z,6.70
2019-04-16T04:24:13.961Z,6.20
2019-04-16T04:25:13.947Z,6.60
2019-04-16T04:26:13.916Z,6.40
2019-04-16T04:27:18.234Z,7.00
2019-04-16T04:28:18.540Z,6.10
2019-04-16T04:29:13.886Z,6.70
2019-04-16T04:30:14.050Z,6.70
2019-04-16T04:31:13.864Z,6.40
2019-04-16T04:32:13.859Z,6.70
2019-04-16T04:33:13.857Z,7.20
2019-04-16T04:34:15.390Z,6.90
2019-04-16T04:35:13.819Z,6.60
2019-04-16T04:36:13.825Z,6.90
2019-04-16T04:37:13.817Z,7.00
2019-04-16T04:38:13.781Z,6.80
2019-04-16T04:39:15.724Z,6.70
2019-04-16T04:40:16.265Z,6.90
2019-04-16T04:41:13.832Z,7.40
2019-04-16T04:42:13.769Z,7.60
2019-04-16T04:43:14.009Z,8.70
2019-04-16T04:44:13.778Z,9.10
2019-04-16T04:45:13.913Z,10.30
2019-04-16T04:46:15.323Z,11.40
2019-04-16T04:47:15.555Z,8.30
2019-04-16T04:48:13.705Z,8.70
2019-04-16T04:49:13.665Z,8.20
2019-04-16T04:50:13.714Z,8.00
2019-04-16T04:51:13.687Z,8.30
2019-04-16T04:52:14.870Z,9.30
2019-04-16T04:53:15.613Z,9.70
2019-04-16T04:54:13.629Z,9.30
2019-04-16T04:55:13.619Z,9.90
2019-04-16T04:56:13.705Z,10.10
2019-04-16T04:57:14.790Z,10.10
2019-04-16T04:58:13.594Z,41.70
2019-04-16T04:59:13.615Z,15.20
2019-04-16T05:00:13.542Z,12.20
2019-04-16T05:01:14.277Z,15.10
2019-04-16T05:02:14.585Z,15.10
2019-04-16T05:03:15.874Z,12.00
2019-04-16T05:04:13.527Z,11.20
2019-04-16T05:05:13.488Z,11.30
2019-04-16T05:06:13.475Z,11.50
2019-04-16T05:07:14.175Z,11.70
2019-04-16T05:08:13.457Z,11.20
2019-04-16T05:09:13.651Z,9.90
2019-04-16T05:10:13.466Z,9.80
2019-04-16T05:11:15.586Z,12.10
2019-04-16T05:12:13.410Z,12.70
2019-04-16T05:13:13.397Z,13.30
2019-04-16T05:14:13.417Z,15.00
2019-04-16T05:15:13.412Z,15.70
2019-04-16T05:16:13.478Z,18.20
2019-04-16T05:17:13.374Z,17.70
2019-04-16T05:18:13.404Z,14.80
2019-04-16T05:19:14.885Z,16.00
2019-04-16T05:20:15.695Z,16.80
2019-04-16T05:21:17.601Z,28.40
2019-04-16T05:22:13.299Z,28.50
2019-04-16T05:23:13.281Z,29.00
2019-04-16T05:24:13.281Z,28.70
2019-04-16T05:25:13.260Z,27.00
2019-04-16T05:26:13.272Z,25.20
2019-04-16T05:27:13.263Z,28.00
2019-04-16T05:28:13.504Z,28.40
2019-04-16T05:29:17.440Z,31.00
2019-04-16T05:30:14.344Z,28.40
2019-04-16T05:31:13.235Z,27.40
2019-04-16T05:32:13.278Z,24.80
2019-04-16T05:33:14.078Z,23.40
2019-04-16T05:34:13.159Z,22.50
2019-04-16T05:35:13.162Z,21.00
2019-04-16T05:36:14.184Z,19.80
2019-04-16T05:37:13.141Z,18.60
2019-04-16T05:38:13.120Z,17.20
2019-04-16T05:39:13.109Z,16.10
2019-04-16T05:40:13.088Z,15.40
2019-04-16T05:41:17.152Z,14.90
2019-04-16T05:42:14.028Z,10.60
2019-04-16T05:43:13.071Z,12.30
2019-04-16T05:44:13.126Z,13.10
2019-04-16T05:45:13.339Z,13.00
2019-04-16T05:46:13.198Z,12.20
2019-04-16T05:47:16.752Z,13.10
2019-04-16T05:48:14.034Z,12.20
2019-04-16T05:49:13.007Z,10.40
2019-04-16T05:50:12.995Z,9.30
2019-04-16T05:51:13.532Z,8.90
2019-04-16T05:52:12.967Z,8.20
2019-04-16T05:53:13.649Z,7.60
2019-04-16T05:54:13.303Z,7.90
2019-04-16T05:55:16.903Z,7.30
2019-04-16T05:56:12.914Z,7.60
2019-04-16T05:57:13.285Z,6.70
2019-04-16T05:58:13.058Z,6.30
2019-04-16T05:59:12.947Z,6.00
2019-04-16T06:00:12.897Z,5.90
2019-04-16T06:01:13.798Z,6.00
2019-04-16T06:02:15.183Z,5.50
2019-04-16T06:03:12.891Z,5.80
2019-04-16T06:04:12.866Z,6.50
2019-04-16T06:05:12.826Z,5.60
2019-04-16T06:06:12.816Z,6.40
2019-04-16T06:07:12.817Z,6.10
2019-04-16T06:08:13.073Z,6.00
2019-04-16T06:09:13.294Z,6.10
2019-04-16T06:10:16.610Z,6.00
2019-04-16T06:11:26.715Z,5.90
2019-04-16T06:12:13.867Z,6.10
2019-04-16T06:13:13.223Z,5.80
2019-04-16T06:14:16.910Z,5.70
2019-04-16T06:15:13.870Z,6.30
2019-04-16T06:16:12.711Z,6.60
2019-04-16T06:17:12.954Z,6.10
2019-04-16T06:18:12.784Z,6.10
2019-04-16T06:19:12.711Z,6.10
2019-04-16T06:20:12.653Z,5.70
2019-04-16T06:21:12.688Z,6.20
2019-04-16T06:22:12.633Z,6.30
2019-04-16T06:23:12.622Z,6.30
2019-04-16T06:24:12.618Z,6.20
2019-04-16T06:25:12.636Z,6.60
2019-04-16T06:26:16.294Z,6.40
2019-04-16T06:27:12.583Z,6.60
2019-04-16T06:28:12.569Z,6.10
2019-04-16T06:29:12.560Z,6.20
2019-04-16T06:30:12.541Z,6.10
2019-04-16T06:31:12.583Z,6.10
2019-04-16T06:32:12.524Z,6.20
2019-04-16T06:33:12.517Z,6.00
2019-04-16T06:34:12.505Z,6.30
2019-04-16T06:35:12.493Z,6.30
2019-04-16T06:36:12.479Z,6.20
2019-04-16T06:37:12.528Z,6.20
2019-04-16T06:38:12.451Z,6.20
2019-04-16T06:39:12.458Z,6.40
2019-04-16T06:40:12.452Z,6.20
2019-04-16T06:41:12.421Z,6.50
2019-04-16T06:42:12.413Z,6.60
2019-04-16T06:43:12.415Z,6.30
2019-04-16T06:44:12.393Z,6.30
2019-04-16T06:45:12.375Z,6.20
2019-04-16T06:46:12.399Z,6.00
2019-04-16T06:47:12.365Z,6.60
2019-04-16T06:48:13.149Z,6.30
2019-04-16T06:49:14.343Z,6.40
2019-04-16T06:50:12.333Z,6.70
2019-04-16T06:51:12.694Z,6.60
2019-04-16T06:52:16.059Z,6.70
2019-04-16T06:53:13.351Z,6.50
2019-04-16T06:54:12.276Z,6.80
2019-04-16T06:55:12.264Z,6.80
2019-04-16T06:56:12.264Z,6.60
2019-04-16T06:57:12.854Z,6.40
2019-04-16T06:58:12.614Z,6.50
2019-04-16T06:59:12.246Z,6.70
2019-04-16T07:00:12.216Z,6.60
2019-04-16T07:01:12.380Z,6.50
2019-04-16T07:02:12.212Z,6.70
2019-04-16T07:03:12.365Z,6.30
2019-04-16T07:04:12.160Z,6.60
2019-04-16T07:05:12.157Z,6.60
2019-04-16T07:06:12.148Z,6.60
2019-04-16T07:07:12.124Z,7.30
2019-04-16T07:08:12.118Z,7.00
2019-04-16T07:09:12.126Z,6.60
2019-04-16T07:10:12.176Z,6.50
2019-04-16T07:11:12.093Z,6.90
2019-04-16T07:12:12.075Z,6.90
2019-04-16T07:13:12.064Z,6.80
2019-04-16T07:14:15.562Z,6.80
2019-04-16T07:15:12.042Z,6.90
2019-04-16T07:16:12.036Z,7.30
2019-04-16T07:17:12.018Z,6.50
2019-04-16T07:18:12.010Z,6.50
2019-04-16T07:19:12.049Z,7.10
2019-04-16T07:20:13.539Z,6.70
2019-04-16T07:21:14.529Z,6.70
2019-04-16T07:22:12.972Z,7.40
2019-04-16T07:23:11.944Z,6.80
2019-04-16T07:24:11.953Z,7.80
2019-04-16T07:25:11.926Z,7.20
2019-04-16T07:26:14.608Z,7.00
2019-04-16T07:27:11.983Z,6.50
2019-04-16T07:28:11.969Z,6.60
2019-04-16T07:30:38.411Z,5.60
2019-04-16T07:31:35.296Z,6.60
2019-04-16T07:32:34.483Z,6.60
2019-04-16T07:33:34.659Z,7.00
2019-04-16T07:34:34.426Z,6.40
2019-04-16T07:37:48.649Z,6.10
2019-04-16T07:38:48.671Z,6.60
2019-04-16T07:39:59.006Z,6.80
2019-04-16T07:40:58.033Z,7.20
2019-04-16T07:41:49.470Z,6.60
2019-04-16T07:42:52.065Z,6.90
2019-04-16T07:43:48.729Z,6.80
2019-04-16T07:44:48.345Z,6.90
2019-04-16T07:45:48.310Z,6.90
2019-04-16T07:46:48.403Z,7.20
2019-04-16T07:51:05.840Z,7.20
2019-04-16T07:52:07.269Z,6.90
2019-04-16T07:53:05.701Z,6.80
2019-04-16T07:54:05.943Z,6.80
2019-04-16T07:55:05.738Z,6.70
2019-04-16T07:56:05.955Z,7.20
2019-04-16T07:57:15.789Z,6.50
2019-04-16T07:58:06.053Z,6.90
2019-04-16T07:59:25.184Z,7.00
2019-04-16T08:00:22.036Z,6.50
2019-04-16T08:01:11.102Z,7.30
2019-04-16T08:03:39.279Z,6.70
2019-04-16T08:04:28.980Z,7.20
2019-04-16T08:05:27.682Z,6.80
2019-04-16T08:06:23.518Z,7.10
2019-04-16T08:07:23.430Z,7.40
2019-04-16T08:08:34.775Z,6.90
2019-04-16T08:09:23.466Z,6.90
2019-04-16T08:10:23.488Z,7.20
2019-04-16T08:11:23.462Z,7.20
2019-04-16T08:12:30.643Z,7.00
2019-04-16T08:13:23.402Z,7.00
2019-04-16T08:14:23.358Z,7.00
2019-04-16T08:15:24.141Z,7.00
2019-04-16T08:16:23.310Z,7.10
2019-04-16T08:17:23.290Z,7.10
2019-04-16T08:18:23.286Z,7.90
2019-04-16T08:19:36.206Z,7.10
2019-04-16T08:20:24.269Z,7.20
2019-04-16T08:21:23.253Z,7.00
2019-04-16T08:22:23.353Z,7.20
2019-04-16T08:23:23.219Z,7.20
2019-04-16T08:24:24.771Z,7.30
2019-04-16T08:25:23.220Z,7.10
2019-04-16T08:26:23.199Z,7.20
2019-04-16T08:27:23.193Z,6.80
2019-04-16T08:28:23.159Z,7.50
2019-04-16T08:29:26.328Z,7.50
2019-04-16T08:30:23.173Z,7.20
2019-04-16T08:31:23.129Z,7.00
2019-04-16T08:32:25.802Z,6.70
2019-04-16T08:33:28.274Z,6.80
2019-04-16T08:34:23.113Z,7.00
2019-04-16T08:35:23.088Z,7.00
2019-04-16T08:36:23.111Z,7.00
2019-04-16T08:37:23.061Z,7.40
2019-04-16T08:38:25.912Z,7.10
2019-04-16T08:39:23.057Z,6.90
2019-04-16T08:40:23.029Z,7.30
2019-04-16T08:41:23.013Z,6.60
2019-04-16T08:42:25.664Z,7.20
2019-04-16T08:43:23.000Z,6.90
2019-04-16T08:44:22.991Z,7.20
2019-04-16T08:45:22.982Z,7.50
2019-04-16T08:46:23.636Z,7.30
2019-04-16T08:47:22.963Z,6.90
2019-04-16T08:48:22.960Z,7.60
2019-04-16T08:49:23.050Z,7.30
2019-04-16T08:50:25.814Z,7.30
2019-04-16T08:51:30.463Z,7.00
2019-04-16T08:52:23.902Z,6.60
2019-04-16T08:53:23.145Z,6.90
2019-04-16T08:54:22.881Z,6.80
2019-04-16T08:55:23.497Z,7.10
2019-04-16T08:56:22.920Z,6.80
2019-04-16T08:57:22.841Z,6.80
2019-04-16T08:58:22.897Z,6.40
2019-04-16T08:59:22.861Z,6.80
2019-04-16T09:00:22.804Z,7.10
2019-04-16T09:01:23.592Z,6.90
2019-04-16T09:02:23.606Z,6.90
2019-04-16T09:03:22.774Z,6.60
2019-04-16T09:04:22.766Z,6.40
2019-04-16T09:05:22.774Z,6.60
2019-04-16T09:06:22.749Z,6.60
2019-04-16T09:07:22.787Z,6.80
2019-04-16T09:08:22.810Z,6.80
2019-04-16T09:09:24.746Z,6.50
2019-04-16T09:10:24.085Z,6.40
2019-04-16T09:11:23.890Z,7.20
2019-04-16T09:12:22.733Z,6.30
2019-04-16T09:13:22.660Z,6.70
2019-04-16T09:14:25.748Z,6.50
2019-04-16T09:15:22.697Z,6.60
2019-04-16T09:16:22.619Z,6.60
2019-04-16T09:17:22.613Z,6.90
2019-04-16T09:18:22.608Z,6.90
2019-04-16T09:19:22.596Z,7.40
2019-04-16T09:20:23.295Z,6.80
2019-04-16T09:21:22.652Z,7.20
2019-04-16T09:22:22.557Z,6.70
2019-04-16T09:23:22.793Z,6.50
2019-04-16T09:24:22.544Z,6.30
2019-04-16T09:25:22.535Z,7.00
2019-04-16T09:26:23.784Z,7.00
2019-04-16T09:27:22.595Z,6.90
2019-04-16T09:28:25.899Z,7.30
2019-04-16T09:29:22.507Z,6.90
2019-04-16T09:30:22.473Z,6.90
2019-04-16T09:31:23.173Z,7.20
2019-04-16T09:32:24.587Z,7.00
2019-04-16T09:33:23.454Z,7.00
2019-04-16T09:34:22.435Z,6.60
2019-04-16T09:35:22.452Z,6.30
2019-04-16T09:36:22.406Z,6.30
2019-04-16T09:37:25.405Z,6.40
2019-04-16T09:38:23.439Z,6.80
2019-04-16T09:39:22.379Z,7.00
2019-04-16T09:40:22.366Z,7.10
2019-04-16T09:41:31.382Z,6.60
2019-04-16T09:42:22.423Z,7.30
2019-04-16T09:43:22.444Z,7.40
2019-04-16T09:44:22.554Z,7.10
2019-04-16T09:45:37.135Z,7.00
2019-04-16T09:46:48.072Z,6.90
2019-04-16T09:47:23.529Z,7.80
2019-04-16T09:48:22.370Z,7.40
2019-04-16T09:49:24.555Z,7.10
2019-04-16T09:50:22.598Z,7.00
2019-04-16T09:51:25.228Z,7.00
2019-04-16T09:52:22.991Z,7.80
2019-04-16T09:53:32.659Z,7.40
2019-04-16T09:54:23.222Z,7.50
2019-04-16T09:55:22.206Z,7.30
2019-04-16T09:56:23.351Z,7.20
2019-04-16T09:57:24.335Z,7.20
2019-04-16T09:58:22.869Z,7.50
2019-04-16T09:59:22.133Z,6.80
2019-04-16T10:00:22.167Z,7.10
2019-04-16T10:01:22.112Z,7.50
2019-04-16T10:02:22.104Z,6.90
2019-04-16T10:03:22.653Z,7.30
2019-04-16T10:04:22.134Z,7.20
2019-04-16T10:05:22.076Z,8.00
2019-04-16T10:06:22.190Z,7.20
2019-04-16T10:07:40.021Z,7.10
2019-04-16T10:08:22.800Z,7.60
2019-04-16T10:09:22.622Z,7.10
2019-04-16T10:10:23.979Z,7.20
2019-04-16T10:11:23.093Z,7.20
2019-04-16T10:12:28.234Z,7.60
2019-04-16T10:13:31.573Z,7.40
2019-04-16T10:14:31.735Z,7.60
2019-04-16T10:15:22.018Z,7.50
2019-04-16T10:16:22.054Z,7.40
2019-04-16T10:17:22.037Z,7.10
2019-04-16T10:18:22.113Z,7.60
2019-04-16T10:19:22.273Z,6.80
2019-04-16T10:20:21.923Z,7.20
2019-04-16T10:21:22.188Z,7.30
2019-04-16T10:22:21.882Z,7.60
2019-04-16T10:23:21.903Z,7.50
2019-04-16T10:24:21.867Z,7.10
2019-04-16T10:25:22.089Z,7.60
2019-04-16T10:26:21.845Z,6.90
2019-04-16T10:27:21.826Z,7.40
2019-04-16T10:28:22.049Z,7.50
2019-04-16T10:29:21.813Z,7.60
2019-04-16T10:30:21.806Z,7.80
2019-04-16T10:31:21.815Z,7.70
2019-04-16T10:32:21.789Z,7.60
2019-04-16T10:33:21.777Z,7.70
2019-04-16T10:34:21.826Z,7.60
2019-04-16T10:35:21.964Z,7.70
2019-04-16T10:36:21.718Z,7.40
2019-04-16T10:37:21.727Z,7.40
2019-04-16T10:38:21.711Z,7.40
2019-04-16T10:39:21.736Z,6.80
2019-04-16T10:40:21.725Z,7.10
2019-04-16T10:41:21.859Z,6.40
2019-04-16T10:42:21.682Z,7.00
2019-04-16T10:43:21.990Z,6.90
2019-04-16T10:44:21.651Z,7.20
2019-04-16T10:45:21.650Z,6.70
2019-04-16T10:46:21.652Z,7.60
2019-04-16T10:47:21.609Z,7.40
2019-04-16T10:48:21.596Z,7.20
2019-04-16T10:49:21.621Z,6.80
2019-04-16T10:50:21.572Z,7.30
2019-04-16T10:51:21.560Z,7.60
2019-04-16T10:52:22.449Z,8.20
2019-04-16T10:53:21.542Z,7.40
2019-04-16T10:54:21.537Z,7.70
2019-04-16T10:55:21.562Z,7.40
2019-04-16T10:56:22.136Z,7.40
2019-04-16T10:57:21.525Z,7.00
2019-04-16T10:58:21.491Z,6.90
2019-04-16T10:59:21.543Z,7.00
2019-04-16T11:00:21.466Z,6.90
2019-04-16T11:01:22.178Z,7.60
2019-04-16T11:02:21.455Z,7.30
2019-04-16T11:03:21.447Z,7.30
2019-04-16T11:04:21.428Z,7.10
2019-04-16T11:05:21.426Z,7.80
2019-04-16T11:06:21.463Z,7.80
2019-04-16T11:07:21.405Z,7.20
2019-04-16T11:08:21.377Z,7.50
2019-04-16T11:09:21.411Z,7.00
2019-04-16T11:10:21.354Z,6.50
2019-04-16T11:11:21.374Z,7.60
2019-04-16T11:12:21.351Z,7.40
2019-04-16T11:13:21.335Z,7.00
2019-04-16T11:14:32.038Z,7.70
2019-04-16T11:15:21.408Z,8.00
2019-04-16T11:16:21.402Z,8.10
2019-04-16T11:17:22.343Z,7.90
2019-04-16T11:18:21.439Z,7.80
2019-04-16T11:19:21.290Z,7.90
2019-04-16T11:20:21.269Z,7.80
2019-04-16T11:21:21.323Z,7.30
2019-04-16T11:22:21.223Z,7.20
2019-04-16T11:23:21.330Z,7.60
2019-04-16T11:24:21.192Z,7.20
2019-04-16T11:25:21.215Z,7.00
2019-04-16T11:26:21.172Z,7.20
2019-04-16T11:27:21.163Z,7.00
2019-04-16T11:28:21.209Z,7.40
2019-04-16T11:29:21.143Z,8.00
2019-04-16T11:30:21.123Z,8.00
2019-04-16T11:31:21.170Z,7.60
2019-04-16T11:32:21.110Z,7.40
2019-04-16T11:33:21.159Z,7.30
2019-04-16T11:34:21.793Z,7.80
2019-04-16T11:35:23.036Z,7.50
2019-04-16T11:36:21.169Z,7.00
2019-04-16T11:37:21.769Z,6.70
2019-04-16T11:38:21.049Z,6.90
2019-04-16T11:39:21.060Z,7.60
2019-04-16T11:40:21.089Z,7.10
2019-04-16T11:41:21.036Z,7.30
2019-04-16T11:42:20.986Z,6.80
2019-04-16T11:43:21.010Z,6.60
2019-04-16T11:44:33.298Z,7.30
2019-04-16T11:46:44.050Z,6.10
2019-04-16T11:48:55.391Z,7.10
2019-04-16T11:49:55.088Z,7.40
2019-04-16T11:50:55.110Z,7.20
2019-04-16T11:51:55.098Z,7.20
2019-04-16T11:53:04.506Z,7.00
2019-04-16T11:53:55.087Z,7.50
2019-04-16T11:55:06.380Z,7.30
2019-04-16T11:55:55.118Z,7.30
2019-04-16T11:57:05.789Z,7.60
2019-04-16T11:57:55.095Z,7.10
2019-04-16T11:58:57.391Z,7.40
2019-04-16T12:00:06.553Z,7.30
2019-04-16T12:00:56.279Z,7.60
2019-04-16T12:01:54.914Z,7.50
2019-04-16T12:02:54.870Z,7.50
2019-04-16T12:03:56.271Z,7.50
2019-04-16T12:04:59.010Z,7.50
2019-04-16T12:05:54.913Z,7.10
2019-04-16T12:06:54.828Z,7.50
2019-04-16T12:07:54.819Z,7.30
2019-04-16T12:08:54.787Z,7.30
2019-04-16T12:09:54.791Z,7.10
2019-04-16T12:10:54.790Z,6.90
2019-04-16T12:11:54.790Z,7.00
2019-04-16T12:12:54.739Z,7.20
2019-04-16T12:13:54.726Z,6.90
2019-04-16T12:14:54.783Z,7.30
2019-04-16T12:15:54.712Z,7.20
2019-04-16T12:16:54.724Z,6.80
2019-04-16T12:17:54.683Z,7.30
2019-04-16T12:18:54.711Z,6.20
2019-04-16T12:19:54.756Z,7.20
2019-04-16T12:20:54.674Z,7.00
2019-04-16T12:21:54.692Z,7.10
2019-04-16T12:22:54.698Z,6.30
2019-04-16T12:23:54.631Z,7.10
2019-04-16T12:24:54.621Z,6.90
2019-04-16T12:25:54.599Z,6.50
2019-04-16T12:26:54.648Z,6.90
2019-04-16T12:27:54.598Z,6.50
2019-04-16T12:28:54.579Z,7.20
2019-04-16T12:29:54.599Z,6.90
2019-04-16T12:30:54.623Z,6.50
2019-04-16T12:31:54.529Z,7.00
2019-04-16T12:32:54.635Z,6.50
2019-04-16T12:33:55.463Z,6.60
2019-04-16T12:34:54.536Z,6.80
2019-04-16T12:35:54.543Z,6.30
2019-04-16T12:36:54.469Z,6.80
2019-04-16T12:37:54.492Z,7.10
2019-04-16T12:38:54.514Z,6.50
2019-04-16T12:39:55.475Z,6.60
2019-04-16T12:40:54.470Z,6.30
2019-04-16T12:41:54.482Z,6.40
2019-04-16T12:42:54.442Z,6.90
2019-04-16T12:43:54.412Z,6.70
2019-04-16T12:44:54.392Z,6.70
2019-04-16T12:45:54.379Z,6.40
2019-04-16T12:46:54.387Z,6.70
2019-04-16T12:47:54.414Z,6.90
2019-04-16T12:49:15.543Z,6.90
2019-04-16T12:49:54.365Z,6.60
2019-04-16T12:50:54.322Z,7.00
2019-04-16T12:51:54.314Z,6.90
2019-04-16T12:52:55.012Z,7.30
2019-04-16T12:53:54.367Z,7.10
2019-04-16T12:54:58.308Z,7.20
2019-04-16T12:55:54.289Z,7.10
2019-04-16T12:56:54.288Z,6.50
2019-04-16T12:57:54.240Z,7.10
2019-04-16T12:58:54.263Z,7.00
2019-04-16T12:59:54.961Z,7.40
2019-04-16T13:00:54.220Z,7.10
2019-04-16T13:01:54.197Z,7.10
2019-04-16T13:02:54.180Z,7.80
2019-04-16T13:03:54.190Z,6.90
2019-04-16T13:04:54.150Z,6.50
2019-04-16T13:05:54.693Z,7.20
2019-04-16T13:06:54.130Z,7.10
2019-04-16T13:07:54.132Z,7.40
2019-04-16T13:08:54.110Z,6.80
2019-04-16T13:09:54.137Z,6.90
2019-04-16T13:10:54.084Z,6.90
2019-04-16T13:11:54.088Z,6.90
2019-04-16T13:12:54.078Z,7.10
2019-04-16T13:13:54.931Z,7.20
2019-04-16T13:15:01.009Z,7.00
2019-04-16T13:15:55.046Z,7.50
2019-04-16T13:16:54.071Z,7.30
2019-04-16T13:17:54.003Z,7.30
2019-04-16T13:18:53.997Z,6.60
2019-04-16T13:19:54.023Z,7.00
2019-04-16T13:20:57.037Z,7.60
2019-04-16T13:21:54.019Z,7.10
2019-04-16T13:22:53.946Z,7.30
2019-04-16T13:23:53.955Z,6.80
2019-04-16T13:24:53.925Z,6.90
2019-04-16T13:25:54.443Z,7.70
2019-04-16T13:26:53.925Z,7.70
2019-04-16T13:27:53.903Z,7.70